sensor_id;sensor_type;location;lat;lon;timestamp;pressure;altitude;pressure_sealevel;temperature
67966;BMP280;54749;47.850;9.002;2022-08-14T00:01:43;95677.28;;;14.06
67966;BMP280;54749;47.850;9.002;2022-08-14T00:04:20;95675.44;;;13.99
67966;BMP280;54749;47.850;9.002;2022-08-14T00:07:09;95673.13;;;13.88
67966;BMP280;54749;47.850;9.002;2022-08-14T00:09:37;95670.47;;;13.80
67966;BMP280;54749;47.850;9.002;2022-08-14T00:12:24;95672.88;;;13.72
67966;BMP280;54749;47.850;9.002;2022-08-14T00:15:28;95664.09;;;13.67
67966;BMP280;54749;47.850;9.002;2022-08-14T00:18:12;95657.44;;;13.57
67966;BMP280;54749;47.850;9.002;2022-08-14T00:20:41;95645.72;;;13.47
67966;BMP280;54749;47.850;9.002;2022-08-14T00:23:11;95640.16;;;13.34
67966;BMP280;54749;47.850;9.002;2022-08-14T00:25:46;95630.63;;;13.19
67966;BMP280;54749;47.850;9.002;2022-08-14T00:28:25;95622.84;;;13.20
67966;BMP280;54749;47.850;9.002;2022-08-14T00:30:58;95623.50;;;13.22
67966;BMP280;54749;47.850;9.002;2022-08-14T00:33:27;95606.56;;;13.23
67966;BMP280;54749;47.850;9.002;2022-08-14T00:36:14;95606.03;;;13.19
67966;BMP280;54749;47.850;9.002;2022-08-14T00:39:01;95615.38;;;13.19
67966;BMP280;54749;47.850;9.002;2022-08-14T00:41:32;95611.34;;;13.26
67966;BMP280;54749;47.850;9.002;2022-08-14T00:43:59;95613.19;;;13.33
67966;BMP280;54749;47.850;9.002;2022-08-14T00:46:27;95626.81;;;13.32
67966;BMP280;54749;47.850;9.002;2022-08-14T00:48:59;95633.13;;;13.28
67966;BMP280;54749;47.850;9.002;2022-08-14T00:51:27;95635.91;;;13.25
67966;BMP280;54749;47.850;9.002;2022-08-14T00:54:05;95640.47;;;13.22
67966;BMP280;54749;47.850;9.002;2022-08-14T00:56:49;95636.22;;;13.13
67966;BMP280;54749;47.850;9.002;2022-08-14T00:59:20;95632.13;;;13.03
67966;BMP280;54749;47.850;9.002;2022-08-14T01:01:50;95631.47;;;12.92
67966;BMP280;54749;47.850;9.002;2022-08-14T01:04:21;95631.50;;;12.73
67966;BMP280;54749;47.850;9.002;2022-08-14T01:07:09;95628.72;;;12.67
67966;BMP280;54749;47.850;9.002;2022-08-14T01:09:36;95621.63;;;12.70
67966;BMP280;54749;47.850;9.002;2022-08-14T01:12:05;95620.31;;;12.66
67966;BMP280;54749;47.850;9.002;2022-08-14T01:14:33;95606.56;;;12.60
67966;BMP280;54749;47.850;9.002;2022-08-14T01:17:02;95600.00;;;12.57
67966;BMP280;54749;47.850;9.002;2022-08-14T01:19:29;95594.56;;;12.61
67966;BMP280;54749;47.850;9.002;2022-08-14T01:22:15;95602.03;;;12.63
67966;BMP280;54749;47.850;9.002;2022-08-14T01:24:45;95596.81;;;12.64
67966;BMP280;54749;47.850;9.002;2022-08-14T01:27:18;95592.31;;;12.68
67966;BMP280;54749;47.850;9.002;2022-08-14T01:29:46;95589.88;;;12.66
67966;BMP280;54749;47.850;9.002;2022-08-14T01:32:29;95603.47;;;12.56
67966;BMP280;54749;47.850;9.002;2022-08-14T01:34:56;95598.56;;;12.45
67966;BMP280;54749;47.850;9.002;2022-08-14T01:37:44;95588.03;;;12.31
67966;BMP280;54749;47.850;9.002;2022-08-14T01:40:24;95590.44;;;12.24
67966;BMP280;54749;47.850;9.002;2022-08-14T01:43:10;95584.56;;;12.14
67966;BMP280;54749;47.850;9.002;2022-08-14T01:45:48;95578.56;;;12.15
67966;BMP280;54749;47.850;9.002;2022-08-14T01:48:32;95569.63;;;12.29
67966;BMP280;54749;47.850;9.002;2022-08-14T01:51:06;95570.41;;;12.39
67966;BMP280;54749;47.850;9.002;2022-08-14T01:53:46;95567.75;;;12.31
67966;BMP280;54749;47.850;9.002;2022-08-14T01:56:27;95566.19;;;12.12
67966;BMP280;54749;47.850;9.002;2022-08-14T02:01:35;95569.88;;;12.08
67966;BMP280;54749;47.850;9.002;2022-08-14T02:04:07;95564.81;;;12.08
67966;BMP280;54749;47.850;9.002;2022-08-14T02:06:54;95553.13;;;12.07
67966;BMP280;54749;47.850;9.002;2022-08-14T02:09:21;95550.31;;;12.10
67966;BMP280;54749;47.850;9.002;2022-08-14T02:11:51;95555.38;;;12.10
67966;BMP280;54749;47.850;9.002;2022-08-14T02:14:20;95561.50;;;12.08
67966;BMP280;54749;47.850;9.002;2022-08-14T02:16:58;95553.22;;;11.96
67966;BMP280;54749;47.850;9.002;2022-08-14T02:19:28;95539.75;;;11.87
67966;BMP280;54749;47.850;9.002;2022-08-14T02:21:59;95543.50;;;11.83
67966;BMP280;54749;47.850;9.002;2022-08-14T02:24:29;95538.44;;;11.83
67966;BMP280;54749;47.850;9.002;2022-08-14T02:27:06;95549.25;;;11.85
67966;BMP280;54749;47.850;9.002;2022-08-14T02:29:55;95543.50;;;11.83
67966;BMP280;54749;47.850;9.002;2022-08-14T02:32:26;95546.81;;;11.74
67966;BMP280;54749;47.850;9.002;2022-08-14T02:35:03;95536.16;;;11.61
67966;BMP280;54749;47.850;9.002;2022-08-14T02:37:35;95538.25;;;11.56
67966;BMP280;54749;47.850;9.002;2022-08-14T02:40:15;95536.00;;;11.54
67966;BMP280;54749;47.850;9.002;2022-08-14T02:42:43;95537.09;;;11.51
67966;BMP280;54749;47.850;9.002;2022-08-14T02:45:21;95528.16;;;11.56
67966;BMP280;54749;47.850;9.002;2022-08-14T02:47:48;95519.75;;;11.56
67966;BMP280;54749;47.850;9.002;2022-08-14T02:50:23;95516.03;;;11.51
67966;BMP280;54749;47.850;9.002;2022-08-14T02:52:53;95513.09;;;11.46
67966;BMP280;54749;47.850;9.002;2022-08-14T02:55:23;95508.16;;;11.54
67966;BMP280;54749;47.850;9.002;2022-08-14T02:57:50;95509.94;;;11.81
67966;BMP280;54749;47.850;9.002;2022-08-14T03:00:31;95513.25;;;12.00
67966;BMP280;54749;47.850;9.002;2022-08-14T03:02:58;95495.25;;;12.12
67966;BMP280;54749;47.850;9.002;2022-08-14T03:05:34;95483.75;;;12.26
67966;BMP280;54749;47.850;9.002;2022-08-14T03:08:09;95488.81;;;12.26
67966;BMP280;54749;47.850;9.002;2022-08-14T03:10:41;95485.09;;;12.21
67966;BMP280;54749;47.850;9.002;2022-08-14T03:13:15;95479.66;;;12.16
67966;BMP280;54749;47.850;9.002;2022-08-14T03:15:48;95481.00;;;12.11
67966;BMP280;54749;47.850;9.002;2022-08-14T03:18:23;95486.31;;;12.08
67966;BMP280;54749;47.850;9.002;2022-08-14T03:21:03;95489.25;;;12.04
67966;BMP280;54749;47.850;9.002;2022-08-14T03:23:30;95491.53;;;11.97
67966;BMP280;54749;47.850;9.002;2022-08-14T03:26:03;95492.22;;;11.90
67966;BMP280;54749;47.850;9.002;2022-08-14T03:28:30;95479.41;;;11.91
67966;BMP280;54749;47.850;9.002;2022-08-14T03:30:59;95468.06;;;12.05
67966;BMP280;54749;47.850;9.002;2022-08-14T03:33:28;95467.41;;;12.12
67966;BMP280;54749;47.850;9.002;2022-08-14T03:36:07;95468.81;;;12.33
67966;BMP280;54749;47.850;9.002;2022-08-14T03:38:58;95469.56;;;12.43
67966;BMP280;54749;47.850;9.002;2022-08-14T03:41:42;95468.13;;;12.40
67966;BMP280;54749;47.850;9.002;2022-08-14T03:44:09;95465.72;;;12.29
67966;BMP280;54749;47.850;9.002;2022-08-14T03:46:55;95466.19;;;12.16
67966;BMP280;54749;47.850;9.002;2022-08-14T03:49:23;95458.44;;;12.08
67966;BMP280;54749;47.850;9.002;2022-08-14T03:51:57;95463.50;;;12.08
67966;BMP280;54749;47.850;9.002;2022-08-14T03:54:27;95457.13;;;12.04
67966;BMP280;54749;47.850;9.002;2022-08-14T03:56:55;95457.69;;;11.98
67966;BMP280;54749;47.850;9.002;2022-08-14T03:59:31;95457.50;;;12.09
67966;BMP280;54749;47.850;9.002;2022-08-14T04:02:01;95466.19;;;12.16
67966;BMP280;54749;47.850;9.002;2022-08-14T04:04:35;95465.38;;;12.15
67966;BMP280;54749;47.850;9.002;2022-08-14T04:07:04;95469.13;;;12.11
67966;BMP280;54749;47.850;9.002;2022-08-14T04:09:31;95465.13;;;12.09
67966;BMP280;54749;47.850;9.002;2022-08-14T04:12:00;95467.94;;;12.06
67966;BMP280;54749;47.850;9.002;2022-08-14T04:14:31;95476.56;;;12.13
67966;BMP280;54749;47.850;9.002;2022-08-14T04:17:03;95464.41;;;12.25
67966;BMP280;54749;47.850;9.002;2022-08-14T04:19:36;95472.63;;;12.55
67966;BMP280;54749;47.850;9.002;2022-08-14T04:22:03;95467.28;;;12.67
67966;BMP280;54749;47.850;9.002;2022-08-14T04:24:33;95465.13;;;12.72
67966;BMP280;54749;47.850;9.002;2022-08-14T04:27:06;95463.91;;;12.76
67966;BMP280;54749;47.850;9.002;2022-08-14T04:29:40;95461.06;;;12.79
67966;BMP280;54749;47.850;9.002;2022-08-14T04:32:09;95453.19;;;12.82
67966;BMP280;54749;47.850;9.002;2022-08-14T04:34:56;95451.94;;;12.86
67966;BMP280;54749;47.850;9.002;2022-08-14T04:37:24;95456.31;;;13.02
67966;BMP280;54749;47.850;9.002;2022-08-14T04:40:12;95450.97;;;13.22
67966;BMP280;54749;47.850;9.002;2022-08-14T04:42:58;95446.66;;;13.49
67966;BMP280;54749;47.850;9.002;2022-08-14T04:45:46;95447.22;;;13.60
67966;BMP280;54749;47.850;9.002;2022-08-14T04:48:17;95448.53;;;13.81
67966;BMP280;54749;47.850;9.002;2022-08-14T04:51:12;95443.66;;;14.04
67966;BMP280;54749;47.850;9.002;2022-08-14T04:53:41;95439.03;;;14.25
67966;BMP280;54749;47.850;9.002;2022-08-14T04:56:15;95437.25;;;14.42
67966;BMP280;54749;47.850;9.002;2022-08-14T04:59:03;95448.47;;;14.57
67966;BMP280;54749;47.850;9.002;2022-08-14T05:01:41;95453.00;;;14.71
67966;BMP280;54749;47.850;9.002;2022-08-14T05:04:18;95458.13;;;14.78
67966;BMP280;54749;47.850;9.002;2022-08-14T05:06:48;95458.25;;;14.77
67966;BMP280;54749;47.850;9.002;2022-08-14T05:09:19;95466.88;;;14.76
67966;BMP280;54749;47.850;9.002;2022-08-14T05:11:47;95459.84;;;14.78
67966;BMP280;54749;47.850;9.002;2022-08-14T05:14:18;95468.94;;;14.80
67966;BMP280;54749;47.850;9.002;2022-08-14T05:17:09;95476.63;;;14.88
67966;BMP280;54749;47.850;9.002;2022-08-14T05:19:37;95463.16;;;14.95
67966;BMP280;54749;47.850;9.002;2022-08-14T05:22:24;95464.28;;;14.93
67966;BMP280;54749;47.850;9.002;2022-08-14T05:24:53;95454.72;;;14.95
67966;BMP280;54749;47.850;9.002;2022-08-14T05:27:19;95463.09;;;14.88
67966;BMP280;54749;47.850;9.002;2022-08-14T05:29:53;95453.97;;;14.77
67966;BMP280;54749;47.850;9.002;2022-08-14T05:32:24;95442.03;;;14.70
67966;BMP280;54749;47.850;9.002;2022-08-14T05:34:56;95442.03;;;14.70
67966;BMP280;54749;47.850;9.002;2022-08-14T05:37:24;95445.28;;;14.88
67966;BMP280;54749;47.850;9.002;2022-08-14T05:39:53;95446.13;;;15.36
67966;BMP280;54749;47.850;9.002;2022-08-14T05:42:22;95431.72;;;16.07
67966;BMP280;54749;47.850;9.002;2022-08-14T05:44:58;95420.66;;;17.06
67966;BMP280;54749;47.850;9.002;2022-08-14T05:47:25;95421.22;;;18.05
67966;BMP280;54749;47.850;9.002;2022-08-14T05:50:00;95409.81;;;19.28
67966;BMP280;54749;47.850;9.002;2022-08-14T05:52:27;95407.59;;;20.61
67966;BMP280;54749;47.850;9.002;2022-08-14T05:55:07;95400.69;;;22.05
67966;BMP280;54749;47.850;9.002;2022-08-14T05:57:48;95383.09;;;23.40
67966;BMP280;54749;47.850;9.002;2022-08-14T06:00:18;95385.13;;;24.59
67966;BMP280;54749;47.850;9.002;2022-08-14T06:02:50;95375.06;;;25.73
67966;BMP280;54749;47.850;9.002;2022-08-14T06:05:18;95369.44;;;26.78
67966;BMP280;54749;47.850;9.002;2022-08-14T06:07:49;95356.22;;;27.63
67966;BMP280;54749;47.850;9.002;2022-08-14T06:10:16;95351.84;;;27.52
67966;BMP280;54749;47.850;9.002;2022-08-14T06:12:44;95349.69;;;27.49
67966;BMP280;54749;47.850;9.002;2022-08-14T06:15:23;95341.81;;;27.44
67966;BMP280;54749;47.850;9.002;2022-08-14T06:17:55;95336.66;;;27.72
67966;BMP280;54749;47.850;9.002;2022-08-14T06:20:26;95334.22;;;27.54
67966;BMP280;54749;47.850;9.002;2022-08-14T06:22:56;95337.31;;;28.38
67966;BMP280;54749;47.850;9.002;2022-08-14T06:25:25;95321.00;;;28.42
67966;BMP280;54749;47.850;9.002;2022-08-14T06:27:53;95315.94;;;29.05
67966;BMP280;54749;47.850;9.002;2022-08-14T06:30:23;95315.34;;;28.98
67966;BMP280;54749;47.850;9.002;2022-08-14T06:33:11;95318.09;;;28.39
67966;BMP280;54749;47.850;9.002;2022-08-14T06:35:41;95329.16;;;27.75
67966;BMP280;54749;47.850;9.002;2022-08-14T06:38:14;95314.41;;;27.37
67966;BMP280;54749;47.850;9.002;2022-08-14T06:40:43;95333.69;;;26.91
67966;BMP280;54749;47.850;9.002;2022-08-14T06:43:12;95314.84;;;27.07
67966;BMP280;54749;47.850;9.002;2022-08-14T06:45:43;95319.28;;;26.62
67966;BMP280;54749;47.850;9.002;2022-08-14T06:48:22;95317.50;;;27.23
67966;BMP280;54749;47.850;9.002;2022-08-14T06:50:51;95319.50;;;27.32
67966;BMP280;54749;47.850;9.002;2022-08-14T06:53:20;95314.81;;;27.18
67966;BMP280;54749;47.850;9.002;2022-08-14T06:55:47;95327.09;;;26.11
67966;BMP280;54749;47.850;9.002;2022-08-14T06:58:27;95329.00;;;26.04
67966;BMP280;54749;47.850;9.002;2022-08-14T07:00:57;95328.34;;;27.20
67966;BMP280;54749;47.850;9.002;2022-08-14T07:03:52;95334.50;;;28.39
67966;BMP280;54749;47.850;9.002;2022-08-14T07:06:50;95318.31;;;29.48
67966;BMP280;54749;47.850;9.002;2022-08-14T07:09:20;95310.22;;;30.53
67966;BMP280;54749;47.850;9.002;2022-08-14T07:11:49;95315.63;;;31.27
67966;BMP280;54749;47.850;9.002;2022-08-14T07:14:17;95317.75;;;32.19
67966;BMP280;54749;47.850;9.002;2022-08-14T07:16:44;95304.22;;;33.47
67966;BMP280;54749;47.850;9.002;2022-08-14T07:19:11;95302.16;;;34.66
67966;BMP280;54749;47.850;9.002;2022-08-14T07:21:38;95312.53;;;35.31
67966;BMP280;54749;47.850;9.002;2022-08-14T07:24:06;95307.59;;;35.25
67966;BMP280;54749;47.850;9.002;2022-08-14T07:26:47;95310.09;;;34.56
67966;BMP280;54749;47.850;9.002;2022-08-14T07:29:14;95320.41;;;33.63
67966;BMP280;54749;47.850;9.002;2022-08-14T07:31:43;95320.91;;;34.13
67966;BMP280;54749;47.850;9.002;2022-08-14T07:34:12;95317.31;;;35.47
67966;BMP280;54749;47.850;9.002;2022-08-14T07:36:58;95324.88;;;36.66
67966;BMP280;54749;47.850;9.002;2022-08-14T07:39:26;95325.38;;;37.78
67966;BMP280;54749;47.850;9.002;2022-08-14T07:41:53;95327.19;;;38.52
67966;BMP280;54749;47.850;9.002;2022-08-14T07:44:20;95320.59;;;37.80
67966;BMP280;54749;47.850;9.002;2022-08-14T07:47:02;95315.88;;;36.98
67966;BMP280;54749;47.850;9.002;2022-08-14T07:49:31;95301.88;;;37.42
67966;BMP280;54749;47.850;9.002;2022-08-14T07:52:03;95314.97;;;38.21
67966;BMP280;54749;47.850;9.002;2022-08-14T07:54:30;95305.09;;;39.75
67966;BMP280;54749;47.850;9.002;2022-08-14T07:56:58;95306.31;;;40.73
67966;BMP280;54749;47.850;9.002;2022-08-14T07:59:26;95300.81;;;41.67
67966;BMP280;54749;47.850;9.002;2022-08-14T08:02:14;95306.66;;;41.16
67966;BMP280;54749;47.850;9.002;2022-08-14T08:04:51;95308.88;;;41.51
67966;BMP280;54749;47.850;9.002;2022-08-14T08:07:26;95303.31;;;42.60
67966;BMP280;54749;47.850;9.002;2022-08-14T08:09:57;95308.53;;;43.43
67966;BMP280;54749;47.850;9.002;2022-08-14T08:12:27;95303.25;;;43.67
67966;BMP280;54749;47.850;9.002;2022-08-14T08:14:59;95309.00;;;43.34
67966;BMP280;54749;47.850;9.002;2022-08-14T08:17:36;95319.19;;;43.43
67966;BMP280;54749;47.850;9.002;2022-08-14T08:20:15;95327.09;;;43.87
67966;BMP280;54749;47.850;9.002;2022-08-14T08:22:47;95329.09;;;43.66
67966;BMP280;54749;47.850;9.002;2022-08-14T08:25:23;95315.38;;;44.64
67966;BMP280;54749;47.850;9.002;2022-08-14T08:27:55;95310.97;;;44.57
67966;BMP280;54749;47.850;9.002;2022-08-14T08:30:23;95305.56;;;44.53
67966;BMP280;54749;47.850;9.002;2022-08-14T08:32:51;95308.25;;;44.30
67966;BMP280;54749;47.850;9.002;2022-08-14T08:35:25;95304.16;;;44.71
67966;BMP280;54749;47.850;9.002;2022-08-14T08:38:14;95303.81;;;42.14
67966;BMP280;54749;47.850;9.002;2022-08-14T08:41:03;95292.44;;;42.33
67966;BMP280;54749;47.850;9.002;2022-08-14T08:43:35;95287.63;;;42.47
67966;BMP280;54749;47.850;9.002;2022-08-14T08:46:09;95279.66;;;43.10
67966;BMP280;54749;47.850;9.002;2022-08-14T08:48:48;95268.78;;;43.15
67966;BMP280;54749;47.850;9.002;2022-08-14T08:54:05;95257.28;;;44.58
67966;BMP280;54749;47.850;9.002;2022-08-14T08:56:44;95269.00;;;44.04
67966;BMP280;54749;47.850;9.002;2022-08-14T09:01:52;95269.28;;;43.40
67966;BMP280;54749;47.850;9.002;2022-08-14T09:04:24;95263.75;;;41.79
67966;BMP280;54749;47.850;9.002;2022-08-14T09:06:52;95253.19;;;41.43
67966;BMP280;54749;47.850;9.002;2022-08-14T09:09:37;95243.28;;;42.71
67966;BMP280;54749;47.850;9.002;2022-08-14T09:12:27;95247.03;;;43.60
67966;BMP280;54749;47.850;9.002;2022-08-14T09:15:07;95259.41;;;43.29
67966;BMP280;54749;47.850;9.002;2022-08-14T09:17:40;95252.47;;;44.10
67966;BMP280;54749;47.850;9.002;2022-08-14T09:20:10;95263.34;;;44.44
67966;BMP280;54749;47.850;9.002;2022-08-14T09:22:41;95247.59;;;45.07
67966;BMP280;54749;47.850;9.002;2022-08-14T09:25:18;95247.00;;;44.18
67966;BMP280;54749;47.850;9.002;2022-08-14T09:28:05;95253.63;;;43.27
67966;BMP280;54749;47.850;9.002;2022-08-14T09:30:34;95238.06;;;44.26
67966;BMP280;54749;47.850;9.002;2022-08-14T09:39:11;95243.81;;;45.23
67966;BMP280;54749;47.850;9.002;2022-08-14T09:45:12;95225.50;;;44.95
67966;BMP280;54749;47.850;9.002;2022-08-14T09:48:00;95228.13;;;45.37
67966;BMP280;54749;47.850;9.002;2022-08-14T09:50:28;95235.59;;;45.62
67966;BMP280;54749;47.850;9.002;2022-08-14T09:53:06;95237.50;;;45.16
67966;BMP280;54749;47.850;9.002;2022-08-14T09:55:44;95233.28;;;43.93
67966;BMP280;54749;47.850;9.002;2022-08-14T09:58:16;95236.97;;;44.27
67966;BMP280;54749;47.850;9.002;2022-08-14T10:00:55;95247.69;;;43.92
67966;BMP280;54749;47.850;9.002;2022-08-14T10:03:33;95232.06;;;43.79
67966;BMP280;54749;47.850;9.002;2022-08-14T10:06:16;95229.97;;;43.84
67966;BMP280;54749;47.850;9.002;2022-08-14T10:09:05;95213.88;;;45.03
67966;BMP280;54749;47.850;9.002;2022-08-14T10:11:53;95207.44;;;45.98
67966;BMP280;54749;47.850;9.002;2022-08-14T10:14:28;95211.59;;;46.14
67966;BMP280;54749;47.850;9.002;2022-08-14T10:17:04;95215.22;;;46.06
67966;BMP280;54749;47.850;9.002;2022-08-14T10:19:34;95218.34;;;45.74
67966;BMP280;54749;47.850;9.002;2022-08-14T10:22:12;95213.53;;;45.65
67966;BMP280;54749;47.850;9.002;2022-08-14T10:25:09;95211.72;;;46.21
67966;BMP280;54749;47.850;9.002;2022-08-14T10:27:37;95207.63;;;46.63
67966;BMP280;54749;47.850;9.002;2022-08-14T10:30:12;95207.44;;;45.98
67966;BMP280;54749;47.850;9.002;2022-08-14T10:32:48;95209.66;;;45.62
67966;BMP280;54749;47.850;9.002;2022-08-14T10:35:18;95208.75;;;45.10
67966;BMP280;54749;47.850;9.002;2022-08-14T10:37:51;95206.66;;;44.46
67966;BMP280;54749;47.850;9.002;2022-08-14T10:40:30;95205.81;;;44.04
67966;BMP280;54749;47.850;9.002;2022-08-14T10:43:20;95212.59;;;44.40
67966;BMP280;54749;47.850;9.002;2022-08-14T10:45:54;95209.69;;;43.95
67966;BMP280;54749;47.850;9.002;2022-08-14T10:48:58;95194.25;;;43.50
67966;BMP280;54749;47.850;9.002;2022-08-14T10:51:28;95192.72;;;42.28
67966;BMP280;54749;47.850;9.002;2022-08-14T10:54:06;95187.84;;;43.16
67966;BMP280;54749;47.850;9.002;2022-08-14T10:57:16;95191.72;;;44.04
67966;BMP280;54749;47.850;9.002;2022-08-14T10:59:48;95178.50;;;44.91
67966;BMP280;54749;47.850;9.002;2022-08-14T11:07:35;95181.19;;;44.07
67966;BMP280;54749;47.850;9.002;2022-08-14T11:10:12;95178.13;;;42.77
67966;BMP280;54749;47.850;9.002;2022-08-14T11:15:06;95186.50;;;38.84
67966;BMP280;54749;47.850;9.002;2022-08-14T11:17:33;95195.56;;;37.76
67966;BMP280;54749;47.850;9.002;2022-08-14T11:20:05;95199.03;;;35.83
67966;BMP280;54749;47.850;9.002;2022-08-14T11:22:42;95188.38;;;35.75
67966;BMP280;54749;47.850;9.002;2022-08-14T11:25:24;95187.38;;;35.71
67966;BMP280;54749;47.850;9.002;2022-08-14T11:28:12;95179.75;;;34.65
67966;BMP280;54749;47.850;9.002;2022-08-14T11:30:48;95187.41;;;34.11
67966;BMP280;54749;47.850;9.002;2022-08-14T11:33:24;95185.66;;;34.25
67966;BMP280;54749;47.850;9.002;2022-08-14T11:35:57;95189.19;;;33.78
67966;BMP280;54749;47.850;9.002;2022-08-14T11:38:35;95180.75;;;33.48
67966;BMP280;54749;47.850;9.002;2022-08-14T11:41:03;95175.75;;;33.52
67966;BMP280;54749;47.850;9.002;2022-08-14T11:43:46;95174.91;;;33.61
67966;BMP280;54749;47.850;9.002;2022-08-14T11:46:25;95169.72;;;33.51
67966;BMP280;54749;47.850;9.002;2022-08-14T11:49:03;95162.44;;;33.43
67966;BMP280;54749;47.850;9.002;2022-08-14T11:51:32;95170.84;;;33.45
67966;BMP280;54749;47.850;9.002;2022-08-14T11:54:16;95157.44;;;33.47
67966;BMP280;54749;47.850;9.002;2022-08-14T11:56:45;95166.69;;;33.30
67966;BMP280;54749;47.850;9.002;2022-08-14T11:59:18;95165.72;;;33.16
67966;BMP280;54749;47.850;9.002;2022-08-14T12:01:51;95154.72;;;33.19
67966;BMP280;54749;47.850;9.002;2022-08-14T12:04:19;95158.66;;;33.12
67966;BMP280;54749;47.850;9.002;2022-08-14T12:06:58;95159.72;;;33.16
67966;BMP280;54749;47.850;9.002;2022-08-14T12:09:35;95160.56;;;33.07
67966;BMP280;54749;47.850;9.002;2022-08-14T12:12:17;95158.22;;;33.00
67966;BMP280;54749;47.850;9.002;2022-08-14T12:15:04;95152.22;;;32.95
67966;BMP280;54749;47.850;9.002;2022-08-14T12:17:44;95152.28;;;32.75
67966;BMP280;54749;47.850;9.002;2022-08-14T12:20:15;95158.09;;;32.68
67966;BMP280;54749;47.850;9.002;2022-08-14T12:23:00;95158.25;;;31.90
67966;BMP280;54749;47.850;9.002;2022-08-14T12:25:28;95164.75;;;31.63
67966;BMP280;54749;47.850;9.002;2022-08-14T12:27:56;95162.66;;;31.75
67966;BMP280;54749;47.850;9.002;2022-08-14T12:30:32;95168.16;;;31.68
67966;BMP280;54749;47.850;9.002;2022-08-14T12:35:58;95169.16;;;31.48
67966;BMP280;54749;47.850;9.002;2022-08-14T12:38:35;95163.91;;;31.33
67966;BMP280;54749;47.850;9.002;2022-08-14T12:41:16;95163.91;;;31.29
67966;BMP280;54749;47.850;9.002;2022-08-14T12:43:53;95154.28;;;31.53
67966;BMP280;54749;47.850;9.002;2022-08-14T12:46:26;95154.81;;;31.50
67966;BMP280;54749;47.850;9.002;2022-08-14T12:48:56;95147.22;;;31.78
67966;BMP280;54749;47.850;9.002;2022-08-14T12:51:25;95139.91;;;31.80
67966;BMP280;54749;47.850;9.002;2022-08-14T12:53:55;95149.31;;;31.66
67966;BMP280;54749;47.850;9.002;2022-08-14T12:56:26;95151.66;;;31.48
67966;BMP280;54749;47.850;9.002;2022-08-14T12:58:59;95147.19;;;31.30
67966;BMP280;54749;47.850;9.002;2022-08-14T13:01:30;95142.66;;;30.96
67966;BMP280;54749;47.850;9.002;2022-08-14T13:04:17;95151.72;;;30.84
67966;BMP280;54749;47.850;9.002;2022-08-14T13:06:45;95151.66;;;30.60
67966;BMP280;54749;47.850;9.002;2022-08-14T13:09:17;95144.56;;;30.50
67966;BMP280;54749;47.850;9.002;2022-08-14T13:11:47;95143.25;;;30.53
67966;BMP280;54749;47.850;9.002;2022-08-14T13:14:37;95129.16;;;30.54
67966;BMP280;54749;47.850;9.002;2022-08-14T13:17:05;95138.50;;;30.40
67966;BMP280;54749;47.850;9.002;2022-08-14T13:19:34;95128.84;;;30.41
67966;BMP280;54749;47.850;9.002;2022-08-14T13:22:01;95130.78;;;30.19
67966;BMP280;54749;47.850;9.002;2022-08-14T13:24:45;95122.78;;;30.30
67966;BMP280;54749;47.850;9.002;2022-08-14T13:27:13;95119.47;;;30.44
67966;BMP280;54749;47.850;9.002;2022-08-14T13:29:44;95119.75;;;30.48
67966;BMP280;54749;47.850;9.002;2022-08-14T13:32:13;95106.22;;;30.51
67966;BMP280;54749;47.850;9.002;2022-08-14T13:34:43;95117.63;;;30.40
67966;BMP280;54749;47.850;9.002;2022-08-14T13:37:14;95105.72;;;30.59
67966;BMP280;54749;47.850;9.002;2022-08-14T13:39:48;95105.78;;;30.73
67966;BMP280;54749;47.850;9.002;2022-08-14T13:42:25;95101.63;;;30.87
67966;BMP280;54749;47.850;9.002;2022-08-14T13:44:59;95099.25;;;30.80
67966;BMP280;54749;47.850;9.002;2022-08-14T13:47:29;95099.25;;;30.76
67966;BMP280;54749;47.850;9.002;2022-08-14T13:49:59;95085.97;;;30.82
67966;BMP280;54749;47.850;9.002;2022-08-14T13:52:50;95085.97;;;30.87
67966;BMP280;54749;47.850;9.002;2022-08-14T13:55:25;95077.13;;;30.93
67966;BMP280;54749;47.850;9.002;2022-08-14T13:57:57;95075.84;;;31.05
67966;BMP280;54749;47.850;9.002;2022-08-14T14:00:35;95070.88;;;31.18
67966;BMP280;54749;47.850;9.002;2022-08-14T14:03:21;95064.34;;;31.11
67966;BMP280;54749;47.850;9.002;2022-08-14T14:05:50;95066.72;;;31.12
67966;BMP280;54749;47.850;9.002;2022-08-14T14:08:22;95059.38;;;31.04
67966;BMP280;54749;47.850;9.002;2022-08-14T14:11:09;95052.06;;;30.96
67966;BMP280;54749;47.850;9.002;2022-08-14T14:13:37;95044.94;;;30.82
67966;BMP280;54749;47.850;9.002;2022-08-14T14:16:11;95052.06;;;30.92
67966;BMP280;54749;47.850;9.002;2022-08-14T14:18:50;95040.31;;;31.09
67966;BMP280;54749;47.850;9.002;2022-08-14T14:21:24;95037.97;;;31.27
67966;BMP280;54749;47.850;9.002;2022-08-14T14:23:54;95037.47;;;31.20
67966;BMP280;54749;47.850;9.002;2022-08-14T14:26:23;95030.69;;;31.24
67966;BMP280;54749;47.850;9.002;2022-08-14T14:28:53;95032.22;;;31.34
67966;BMP280;54749;47.850;9.002;2022-08-14T14:31:24;95027.78;;;31.30
67966;BMP280;54749;47.850;9.002;2022-08-14T14:34:02;95036.94;;;31.13
67966;BMP280;54749;47.850;9.002;2022-08-14T14:36:45;95043.66;;;30.85
67966;BMP280;54749;47.850;9.002;2022-08-14T14:39:16;95045.69;;;30.59
67966;BMP280;54749;47.850;9.002;2022-08-14T14:41:51;95050.94;;;30.63
67966;BMP280;54749;47.850;9.002;2022-08-14T14:44:26;95036.81;;;30.55
67966;BMP280;54749;47.850;9.002;2022-08-14T14:46:57;95045.94;;;30.57
67966;BMP280;54749;47.850;9.002;2022-08-14T14:49:26;95043.31;;;30.52
67966;BMP280;54749;47.850;9.002;2022-08-14T14:52:15;95036.25;;;30.33
67966;BMP280;54749;47.850;9.002;2022-08-14T14:54:55;95028.41;;;30.33
67966;BMP280;54749;47.850;9.002;2022-08-14T14:57:25;95035.50;;;30.47
67966;BMP280;54749;47.850;9.002;2022-08-14T15:00:05;95037.16;;;30.77
67966;BMP280;54749;47.850;9.002;2022-08-14T15:02:41;95025.44;;;31.04
67966;BMP280;54749;47.850;9.002;2022-08-14T15:05:09;95025.97;;;31.30
67966;BMP280;54749;47.850;9.002;2022-08-14T15:07:38;95019.72;;;31.12
67966;BMP280;54749;47.850;9.002;2022-08-14T15:10:07;95017.31;;;30.81
67966;BMP280;54749;47.850;9.002;2022-08-14T15:12:54;95020.16;;;30.80
67966;BMP280;54749;47.850;9.002;2022-08-14T15:15:26;95028.06;;;30.95
67966;BMP280;54749;47.850;9.002;2022-08-14T15:17:52;95024.41;;;31.20
67966;BMP280;54749;47.850;9.002;2022-08-14T15:20:20;95026.22;;;31.05